Hunters, Washington
Current Conditions -  °F | °C
As of 3:53 AM on Friday 28 Nov 2014 (Local Time) from KDEW Reporting Station
Clear Clear  
Wind Chill: 39°   Ceiling: Unl
Heat Index: 46°   Visibility: 10mi
Dew Point: 41°   Wind: 18mph
Humidity: 83%   Direction: 200°SSW
Pressure: 29.58"   Gusts: NA
Location:  48.12°N, 118.2°W
Report Text: KDEW 281153Z AUTO 20016KT 10SM CLR 08/05 A2958 RMK AO2 SLP021 T00780050 10089 20061 58024
Loading
Personal Weather Stations






























Interactive Weather Map New forecast layout! Learn more

10-Day Weather Forecast

Advertisements
Track Severe Weather on mobile